createdAt,value
2019-05-20T00:02:24.732Z,11.43
2019-05-20T00:04:47.938Z,13.43
2019-05-20T00:07:16.615Z,10.93
2019-05-20T00:09:45.280Z,13.87
2019-05-20T00:12:14.583Z,12.13
2019-05-20T00:14:43.229Z,11.97
2019-05-20T00:17:11.883Z,11.63
2019-05-20T00:19:40.596Z,10.80
2019-05-20T00:22:09.560Z,10.80
2019-05-20T00:27:12.019Z,9.43
2019-05-20T00:29:40.730Z,10.57
2019-05-20T00:32:09.724Z,13.23
2019-05-20T00:34:38.637Z,11.30
2019-05-20T00:37:07.778Z,10.23
2019-05-20T00:39:36.752Z,12.20
2019-05-20T00:42:05.414Z,12.80
2019-05-20T00:44:34.078Z,10.90
2019-05-20T00:47:02.783Z,13.97
2019-05-20T00:49:31.551Z,13.07
2019-05-20T00:52:00.236Z,12.77
2019-05-20T00:54:28.909Z,14.93
2019-05-20T00:56:57.844Z,10.90
2019-05-20T00:59:26.835Z,11.30
2019-05-20T01:01:55.550Z,12.93
2019-05-20T01:04:24.443Z,11.83
2019-05-20T01:06:53.126Z,11.40
2019-05-20T01:09:21.771Z,12.47
2019-05-20T01:11:50.522Z,11.10
2019-05-20T01:14:19.218Z,12.60
2019-05-20T01:16:47.910Z,10.67
2019-05-20T01:19:16.559Z,10.57
2019-05-20T01:21:45.208Z,12.77
2019-05-20T01:24:13.970Z,12.53
2019-05-20T01:26:42.667Z,11.97
2019-05-20T01:29:11.396Z,11.40
2019-05-20T01:31:40.454Z,11.70
2019-05-20T01:34:09.168Z,13.13
2019-05-20T01:36:37.845Z,11.47
2019-05-20T01:39:07.127Z,11.30
2019-05-20T01:41:35.875Z,10.97
2019-05-20T01:44:04.615Z,10.27
2019-05-20T01:46:34.175Z,10.17
2019-05-20T01:49:03.104Z,15.27
2019-05-20T01:51:32.127Z,10.27
2019-05-20T01:54:01.056Z,11.53
2019-05-20T01:56:29.716Z,10.53
2019-05-20T01:58:58.392Z,10.93
2019-05-20T02:01:27.327Z,12.10
2019-05-20T02:03:56.319Z,14.40
2019-05-20T02:06:25.039Z,15.47
2019-05-20T02:08:53.843Z,10.03
2019-05-20T02:11:22.576Z,14.37
2019-05-20T02:13:58.160Z,15.80
2019-05-20T02:16:27.395Z,11.57
2019-05-20T02:18:56.498Z,16.23
2019-05-20T02:21:25.151Z,13.67
2019-05-20T02:23:54.069Z,13.77
2019-05-20T02:26:22.747Z,13.97
2019-05-20T02:28:51.751Z,15.10
2019-05-20T02:31:20.498Z,12.97
2019-05-20T02:33:52.460Z,14.17
2019-05-20T02:36:19.848Z,12.43
2019-05-20T02:38:48.820Z,19.70
2019-05-20T02:41:17.732Z,14.80
2019-05-20T02:43:46.701Z,14.87
2019-05-20T02:46:15.356Z,12.67
2019-05-20T02:48:44.029Z,13.53
2019-05-20T02:51:12.667Z,14.33
2019-05-20T02:53:41.680Z,15.87
2019-05-20T02:56:10.348Z,11.27
2019-05-20T02:58:39.013Z,14.57
2019-05-20T03:01:07.692Z,11.43
2019-05-20T03:03:36.426Z,15.03
2019-05-20T03:06:05.331Z,14.53
2019-05-20T03:08:34.356Z,14.30
2019-05-20T03:11:02.988Z,13.40
2019-05-20T03:13:31.656Z,13.57
2019-05-20T03:16:00.581Z,19.63
2019-05-20T03:18:29.237Z,12.73
2019-05-20T03:20:57.924Z,16.40
2019-05-20T03:23:27.078Z,14.47
2019-05-20T03:25:56.186Z,13.67
2019-05-20T03:28:25.146Z,14.83
2019-05-20T03:30:54.216Z,13.70
2019-05-20T03:33:23.009Z,13.90
2019-05-20T03:35:52.089Z,14.73
2019-05-20T03:38:20.899Z,13.17
2019-05-20T03:40:49.630Z,13.50
2019-05-20T03:43:18.277Z,12.47
2019-05-20T03:45:47.284Z,14.00
2019-05-20T03:48:16.227Z,12.57
2019-05-20T03:50:44.888Z,14.43
2019-05-20T03:53:13.536Z,17.30
2019-05-20T03:55:42.552Z,14.33
2019-05-20T03:58:13.685Z,14.80
2019-05-20T04:00:44.827Z,14.23
2019-05-20T04:03:14.565Z,15.47
2019-05-20T04:05:43.684Z,16.67
2019-05-20T04:08:12.527Z,13.37
2019-05-20T04:10:41.520Z,15.70
2019-05-20T04:13:10.508Z,12.50
2019-05-20T04:15:39.278Z,14.03
2019-05-20T04:18:08.159Z,13.17
2019-05-20T04:20:37.223Z,14.07
2019-05-20T04:23:06.328Z,11.97
2019-05-20T04:25:35.168Z,12.63
2019-05-20T04:28:03.971Z,14.60
2019-05-20T04:30:32.992Z,11.97
2019-05-20T04:33:01.916Z,9.97
2019-05-20T04:35:30.604Z,10.20
2019-05-20T04:37:59.697Z,14.40
2019-05-20T04:40:28.413Z,11.83
2019-05-20T04:42:57.068Z,9.60
2019-05-20T04:45:25.747Z,9.83
2019-05-20T04:47:54.482Z,12.23
2019-05-20T04:50:23.145Z,9.37
2019-05-20T04:52:52.480Z,12.73
2019-05-20T04:55:21.192Z,7.62
2019-05-20T04:57:52.140Z,11.10
2019-05-20T05:00:43.383Z,12.58
2019-05-20T05:03:12.076Z,9.93
2019-05-20T05:05:40.728Z,11.55
2019-05-20T05:08:09.501Z,10.25
2019-05-20T05:10:38.177Z,10.45
2019-05-20T05:13:07.331Z,10.13
2019-05-20T05:15:36.115Z,9.63
2019-05-20T05:18:05.244Z,8.95
2019-05-20T05:20:34.478Z,8.37
2019-05-20T05:23:03.418Z,9.13
2019-05-20T05:25:32.321Z,11.70
2019-05-20T05:28:01.753Z,10.98
2019-05-20T05:30:30.605Z,9.48
2019-05-20T05:32:59.574Z,7.42
2019-05-20T05:35:28.283Z,7.28
2019-05-20T05:37:57.329Z,8.03
2019-05-20T05:40:29.843Z,9.95
2019-05-20T05:42:58.922Z,10.00
2019-05-20T05:45:31.943Z,8.85
2019-05-20T05:48:01.059Z,6.87
2019-05-20T05:50:29.968Z,9.55
2019-05-20T05:52:58.890Z,7.62
2019-05-20T05:55:28.351Z,7.87
2019-05-20T05:57:57.135Z,8.15
2019-05-20T06:00:26.119Z,7.10
2019-05-20T06:02:54.788Z,6.22
2019-05-20T06:05:23.700Z,7.37
2019-05-20T06:07:52.808Z,7.30
2019-05-20T06:10:23.169Z,9.55
2019-05-20T06:12:52.083Z,8.28
2019-05-20T06:15:21.273Z,5.95
2019-05-20T06:17:50.327Z,7.22
2019-05-20T06:20:19.642Z,8.10
2019-05-20T06:22:48.355Z,7.03
2019-05-20T06:25:17.298Z,7.12
2019-05-20T06:27:45.961Z,5.05
2019-05-20T06:30:15.910Z,7.42
2019-05-20T06:32:44.670Z,7.72
2019-05-20T06:35:13.783Z,6.17
2019-05-20T06:37:46.272Z,4.92
2019-05-20T06:40:15.371Z,7.03
2019-05-20T06:42:44.213Z,5.90
2019-05-20T06:45:13.177Z,4.75
2019-05-20T06:47:41.942Z,5.55
2019-05-20T06:50:12.002Z,6.22
2019-05-20T06:52:40.738Z,4.85
2019-05-20T06:55:09.937Z,4.17
2019-05-20T06:57:38.923Z,4.95
2019-05-20T07:00:09.285Z,5.62
2019-05-20T07:02:38.205Z,6.90
2019-05-20T07:05:07.663Z,3.92
2019-05-20T07:07:36.394Z,6.22
2019-05-20T07:10:05.749Z,4.40
2019-05-20T07:12:41.056Z,5.80
2019-05-20T07:15:05.599Z,7.35
2019-05-20T07:17:34.249Z,3.50
2019-05-20T07:20:02.931Z,7.92
2019-05-20T07:22:31.886Z,4.40
2019-05-20T07:25:00.651Z,9.15
2019-05-20T07:27:29.295Z,6.75
2019-05-20T07:29:57.967Z,5.60
2019-05-20T07:32:27.315Z,4.10
2019-05-20T07:34:56.276Z,6.72
2019-05-20T07:37:25.231Z,6.95
2019-05-20T07:39:53.975Z,3.60
2019-05-20T07:42:22.961Z,3.40
2019-05-20T07:44:51.633Z,5.20
2019-05-20T07:47:20.759Z,7.03
2019-05-20T07:49:50.262Z,4.40
2019-05-20T07:52:20.413Z,11.85
2019-05-20T07:54:50.125Z,4.92
2019-05-20T07:57:20.908Z,3.50
2019-05-20T07:59:52.765Z,9.00
2019-05-20T08:02:21.504Z,4.62
2019-05-20T08:04:50.629Z,3.55
2019-05-20T08:07:29.698Z,3.00
2019-05-20T08:09:49.809Z,3.27
2019-05-20T08:12:19.030Z,4.12
2019-05-20T08:14:47.738Z,5.75
2019-05-20T08:17:16.478Z,5.35
2019-05-20T08:19:45.137Z,3.58
2019-05-20T08:22:14.261Z,3.67
2019-05-20T08:24:43.287Z,3.80
2019-05-20T08:27:11.979Z,5.80
2019-05-20T08:29:40.688Z,4.87
2019-05-20T08:32:09.449Z,3.05
2019-05-20T08:34:39.148Z,3.37
2019-05-20T08:37:08.491Z,2.60
2019-05-20T08:39:37.522Z,3.22
2019-05-20T08:42:06.179Z,3.95
2019-05-20T08:44:34.891Z,5.35
2019-05-20T08:47:04.033Z,3.15
2019-05-20T08:49:33.104Z,2.60
2019-05-20T08:52:01.748Z,3.35
2019-05-20T08:54:30.761Z,3.40
2019-05-20T08:56:59.551Z,3.27
2019-05-20T08:59:28.245Z,4.00
2019-05-20T09:01:56.954Z,2.70
2019-05-20T09:04:26.110Z,3.00
2019-05-20T09:06:54.905Z,5.28
2019-05-20T09:09:24.023Z,3.40
2019-05-20T09:11:52.735Z,3.80
2019-05-20T09:14:21.761Z,4.62
2019-05-20T09:16:50.907Z,4.42
2019-05-20T09:19:20.348Z,2.25
2019-05-20T09:21:49.115Z,2.20
2019-05-20T09:24:19.110Z,4.20
2019-05-20T09:26:47.979Z,4.53
2019-05-20T09:29:16.640Z,3.25
2019-05-20T09:31:46.084Z,3.50
2019-05-20T09:34:15.168Z,5.58
2019-05-20T09:36:44.665Z,2.70
2019-05-20T09:39:13.716Z,2.37
2019-05-20T09:41:42.714Z,3.27
2019-05-20T09:44:11.484Z,3.33
2019-05-20T09:46:40.178Z,2.62
2019-05-20T09:49:08.960Z,2.83
2019-05-20T09:51:38.357Z,3.87
2019-05-20T09:54:07.061Z,3.58
2019-05-20T09:56:36.648Z,3.20
2019-05-20T09:59:05.750Z,7.67
2019-05-20T10:01:34.409Z,2.85
2019-05-20T10:04:03.414Z,3.35
2019-05-20T10:06:32.170Z,4.85
2019-05-20T10:09:00.898Z,2.70
2019-05-20T10:11:29.572Z,2.55
2019-05-20T10:13:58.211Z,4.12
2019-05-20T10:16:27.165Z,4.70
2019-05-20T10:18:56.151Z,2.60
2019-05-20T10:21:24.886Z,2.95
2019-05-20T10:23:53.535Z,5.40
2019-05-20T10:26:22.300Z,5.95
2019-05-20T10:28:50.960Z,4.42
2019-05-20T10:31:19.683Z,4.08
2019-05-20T10:33:48.368Z,4.28
2019-05-20T10:36:17.672Z,2.60
2019-05-20T10:38:57.836Z,3.30
2019-05-20T10:41:16.789Z,3.40
2019-05-20T10:43:45.592Z,2.33
2019-05-20T10:46:14.335Z,2.80
2019-05-20T10:48:42.979Z,2.20
2019-05-20T10:51:12.081Z,3.42
2019-05-20T10:53:41.450Z,2.98
2019-05-20T10:56:10.523Z,5.72
2019-05-20T10:58:39.292Z,3.65
2019-05-20T11:01:07.982Z,3.55
2019-05-20T11:03:37.751Z,3.65
2019-05-20T11:06:06.958Z,5.03
2019-05-20T11:08:35.723Z,3.37
2019-05-20T11:11:04.720Z,4.92
2019-05-20T11:13:33.899Z,2.90
2019-05-20T11:16:02.795Z,3.02
2019-05-20T11:18:31.432Z,4.75
2019-05-20T11:21:00.139Z,3.40
2019-05-20T11:23:28.799Z,4.10
2019-05-20T11:25:57.473Z,3.47
2019-05-20T11:28:26.500Z,5.60
2019-05-20T11:30:55.143Z,4.37
2019-05-20T11:33:23.845Z,3.02
2019-05-20T11:35:52.651Z,3.12
2019-05-20T11:38:21.460Z,7.95
2019-05-20T11:40:50.127Z,3.85
2019-05-20T11:43:19.500Z,4.40
2019-05-20T11:45:48.155Z,2.85
2019-05-20T11:48:16.899Z,3.52
2019-05-20T11:50:45.564Z,9.08
2019-05-20T11:53:14.351Z,3.42
2019-05-20T11:55:43.332Z,7.78
2019-05-20T11:58:16.237Z,4.67
2019-05-20T12:00:42.451Z,3.77
2019-05-20T12:03:11.136Z,5.62
2019-05-20T12:05:39.913Z,4.97
2019-05-20T12:08:08.970Z,6.10
2019-05-20T12:10:37.650Z,3.02
2019-05-20T12:13:06.547Z,4.10
2019-05-20T12:15:35.271Z,4.45
2019-05-20T12:18:04.003Z,3.22
2019-05-20T12:20:32.718Z,3.10
2019-05-20T12:23:01.362Z,3.98
2019-05-20T12:25:30.005Z,4.35
2019-05-20T12:27:59.014Z,3.62
2019-05-20T12:30:28.053Z,4.85
2019-05-20T12:33:17.014Z,4.83
2019-05-20T12:35:27.548Z,5.72
2019-05-20T12:37:56.931Z,5.25
2019-05-20T12:40:25.768Z,7.55
2019-05-20T12:42:54.479Z,11.12
2019-05-20T12:45:23.502Z,6.42
2019-05-20T12:47:52.602Z,3.67
2019-05-20T12:50:22.866Z,9.50
2019-05-20T12:52:51.528Z,4.37
2019-05-20T12:55:20.374Z,7.12
2019-05-20T12:57:49.050Z,7.70
2019-05-20T13:00:18.371Z,5.62
2019-05-20T13:02:47.152Z,5.97
2019-05-20T13:05:15.926Z,4.45
2019-05-20T13:07:44.704Z,6.05
2019-05-20T13:10:32.064Z,3.33
2019-05-20T13:12:44.174Z,4.10
2019-05-20T13:15:14.603Z,3.52
2019-05-20T13:17:45.046Z,4.50
2019-05-20T13:20:13.945Z,8.45
2019-05-20T13:22:43.225Z,6.30
2019-05-20T13:25:12.246Z,3.15
2019-05-20T13:27:40.948Z,9.60
2019-05-20T13:30:10.714Z,3.60
2019-05-20T13:32:39.373Z,5.50
2019-05-20T13:35:08.750Z,4.75
2019-05-20T13:37:37.399Z,6.58
2019-05-20T13:40:07.099Z,8.85
2019-05-20T13:42:35.955Z,5.80
2019-05-20T13:45:08.026Z,4.35
2019-05-20T13:47:36.730Z,5.72
2019-05-20T13:50:06.368Z,4.87
2019-05-20T13:52:35.064Z,4.53
2019-05-20T13:55:04.292Z,5.90
2019-05-20T13:57:33.317Z,8.20
2019-05-20T14:00:02.349Z,4.17
2019-05-20T14:02:31.440Z,4.50
2019-05-20T14:05:00.360Z,5.95
2019-05-20T14:07:29.017Z,6.90
2019-05-20T14:09:57.697Z,4.65
2019-05-20T14:12:26.894Z,5.92
2019-05-20T14:14:55.631Z,6.85
2019-05-20T14:17:24.353Z,6.42
2019-05-20T14:19:53.051Z,15.88
2019-05-20T14:22:22.153Z,8.98
2019-05-20T14:24:50.888Z,6.78
2019-05-20T14:27:19.752Z,9.53
2019-05-20T14:29:48.389Z,9.68
2019-05-20T14:32:17.218Z,9.68
2019-05-20T14:34:46.094Z,8.23
2019-05-20T14:37:14.744Z,7.95
2019-05-20T14:39:43.782Z,8.35
2019-05-20T14:42:12.482Z,10.25
2019-05-20T14:44:41.468Z,8.25
2019-05-20T14:47:10.394Z,9.90
2019-05-20T14:49:39.192Z,10.53
2019-05-20T14:52:07.958Z,12.88
2019-05-20T14:54:36.601Z,7.67
2019-05-20T14:57:05.236Z,6.83
2019-05-20T14:59:34.106Z,8.53
2019-05-20T15:02:03.048Z,10.45
2019-05-20T15:04:31.819Z,10.58
2019-05-20T15:07:00.705Z,8.95
2019-05-20T15:09:29.428Z,9.85
2019-05-20T15:11:58.063Z,6.58
2019-05-20T15:14:27.132Z,3.30
2019-05-20T15:16:55.782Z,3.10
2019-05-20T15:19:24.768Z,6.30
2019-05-20T15:21:53.451Z,3.23
2019-05-20T15:24:22.208Z,5.03
2019-05-20T15:26:51.646Z,2.17
2019-05-20T15:29:28.223Z,4.77
2019-05-20T15:31:50.897Z,5.37
2019-05-20T15:34:19.700Z,3.83
2019-05-20T15:36:48.472Z,4.70
2019-05-20T15:39:17.165Z,3.77
2019-05-20T15:41:46.326Z,6.43
2019-05-20T15:44:15.064Z,4.47
2019-05-20T15:46:44.059Z,4.93
2019-05-20T15:49:12.795Z,13.27
2019-05-20T15:51:41.801Z,5.30
2019-05-20T15:54:10.432Z,9.07
2019-05-20T15:56:39.866Z,5.20
2019-05-20T15:59:12.525Z,9.20
2019-05-20T16:01:41.751Z,5.33
2019-05-20T16:04:10.601Z,6.70
2019-05-20T16:06:39.304Z,7.67
2019-05-20T16:09:08.570Z,6.60
2019-05-20T16:11:37.754Z,7.90
2019-05-20T16:14:06.833Z,8.47
2019-05-20T16:16:35.793Z,5.80
2019-05-20T16:19:04.889Z,7.53
2019-05-20T16:21:33.986Z,8.77
2019-05-20T16:24:02.791Z,7.07
2019-05-20T16:26:31.515Z,10.57
2019-05-20T16:29:00.817Z,9.13
2019-05-20T16:31:29.749Z,7.95
2019-05-20T16:33:59.576Z,6.22
2019-05-20T16:36:28.625Z,10.78
2019-05-20T16:38:57.292Z,8.38
2019-05-20T16:41:25.966Z,7.22
2019-05-20T16:43:54.616Z,5.97
2019-05-20T16:46:23.600Z,11.70
2019-05-20T16:48:52.526Z,8.05
2019-05-20T16:51:22.455Z,7.12
2019-05-20T16:53:51.636Z,12.35
2019-05-20T16:56:20.287Z,7.70
2019-05-20T16:58:48.985Z,13.13
2019-05-20T17:01:17.921Z,20.02
2019-05-20T17:03:46.551Z,6.97
2019-05-20T17:06:15.594Z,10.80
2019-05-20T17:08:44.337Z,9.25
2019-05-20T17:11:13.203Z,7.57
2019-05-20T17:13:42.148Z,14.75
2019-05-20T17:16:11.832Z,10.63
2019-05-20T17:18:40.500Z,9.58
2019-05-20T17:21:09.564Z,10.10
2019-05-20T17:23:38.236Z,10.55
2019-05-20T17:26:06.944Z,10.18
2019-05-20T17:28:35.605Z,10.15
2019-05-20T17:31:04.667Z,8.45
2019-05-20T17:33:33.316Z,8.43
2019-05-20T17:36:02.115Z,8.33
2019-05-20T17:38:30.847Z,10.53
2019-05-20T17:40:59.718Z,10.43
2019-05-20T17:43:28.828Z,7.65
2019-05-20T17:45:57.773Z,10.25
2019-05-20T17:48:26.533Z,12.78
2019-05-20T17:50:55.540Z,11.97
2019-05-20T17:53:24.473Z,7.65
2019-05-20T17:55:53.116Z,9.88
2019-05-20T17:58:21.797Z,10.53
2019-05-20T18:00:50.960Z,8.60
2019-05-20T18:03:20.435Z,15.38
2019-05-20T18:05:49.361Z,9.58
2019-05-20T18:08:18.189Z,11.00
2019-05-20T18:10:47.030Z,11.60
2019-05-20T18:13:16.135Z,16.93
2019-05-20T18:15:46.274Z,10.75
2019-05-20T18:18:14.980Z,15.32
2019-05-20T18:20:43.653Z,11.37
2019-05-20T18:23:12.387Z,12.70
2019-05-20T18:25:42.932Z,14.07
2019-05-20T18:28:11.768Z,14.35
2019-05-20T18:30:41.969Z,17.07
2019-05-20T18:33:10.640Z,15.23
2019-05-20T18:35:39.472Z,16.23
2019-05-20T18:38:08.260Z,13.15
2019-05-20T18:40:37.321Z,13.77
2019-05-20T18:43:06.009Z,16.33
2019-05-20T18:45:38.906Z,14.90
2019-05-20T18:48:07.706Z,15.17
2019-05-20T18:50:36.775Z,11.67
2019-05-20T18:53:05.996Z,17.07
2019-05-20T18:55:35.082Z,14.53
2019-05-20T18:58:04.495Z,14.03
2019-05-20T19:00:33.217Z,15.00
2019-05-20T19:03:02.120Z,13.43
2019-05-20T19:05:30.808Z,15.13
2019-05-20T19:07:59.527Z,28.30
2019-05-20T19:10:28.341Z,13.80
2019-05-20T19:12:57.031Z,14.10
2019-05-20T19:15:26.321Z,14.60
2019-05-20T19:17:55.151Z,16.17
2019-05-20T19:20:24.070Z,14.20
2019-05-20T19:22:53.128Z,14.00
2019-05-20T19:25:35.631Z,17.87
2019-05-20T19:27:53.032Z,16.43
2019-05-20T19:30:21.955Z,15.37
2019-05-20T19:32:50.734Z,15.73
2019-05-20T19:35:19.734Z,18.10
2019-05-20T19:37:48.408Z,18.37
2019-05-20T19:40:17.311Z,15.57
2019-05-20T19:42:46.027Z,16.80
2019-05-20T19:45:14.784Z,16.43
2019-05-20T19:47:43.549Z,15.33
2019-05-20T19:50:12.570Z,18.15
2019-05-20T19:52:41.558Z,14.60
2019-05-20T19:55:11.763Z,17.40
2019-05-20T19:57:40.412Z,15.67
2019-05-20T20:00:09.586Z,15.07
2019-05-20T20:02:38.417Z,15.53
2019-05-20T20:05:07.495Z,14.53
2019-05-20T20:07:36.554Z,16.13
2019-05-20T20:10:05.797Z,17.43
2019-05-20T20:12:34.461Z,15.23
2019-05-20T20:15:03.691Z,15.33
2019-05-20T20:17:32.738Z,13.73
2019-05-20T20:20:01.618Z,14.93
2019-05-20T20:22:30.328Z,14.87
2019-05-20T20:24:59.500Z,14.07
2019-05-20T20:27:28.975Z,16.47
2019-05-20T20:29:57.703Z,15.63
2019-05-20T20:32:37.620Z,13.07
2019-05-20T20:34:57.071Z,17.10
2019-05-20T20:37:26.220Z,13.17
2019-05-20T20:39:55.145Z,10.50
2019-05-20T20:42:23.811Z,11.40
2019-05-20T20:44:52.541Z,10.33
2019-05-20T20:47:21.215Z,14.07
2019-05-20T20:49:50.133Z,11.90
2019-05-20T20:52:18.837Z,13.30
2019-05-20T20:54:47.549Z,10.70
2019-05-20T20:57:16.360Z,9.63
2019-05-20T20:59:45.246Z,10.07
2019-05-20T21:02:14.227Z,10.20
2019-05-20T21:04:43.218Z,9.90
2019-05-20T21:07:12.259Z,10.83
2019-05-20T21:09:40.939Z,10.30
2019-05-20T21:12:10.036Z,11.30
2019-05-20T21:14:38.801Z,12.23
2019-05-20T21:17:07.945Z,9.70
2019-05-20T21:19:36.632Z,16.90
2019-05-20T21:22:05.827Z,13.53
2019-05-20T21:24:37.420Z,12.80
2019-05-20T21:27:06.172Z,12.93
2019-05-20T21:29:37.398Z,10.13
2019-05-20T21:32:06.101Z,13.97
2019-05-20T21:34:35.522Z,12.67
2019-05-20T21:37:04.183Z,12.90
2019-05-20T21:39:33.079Z,12.33
2019-05-20T21:42:01.986Z,13.43
2019-05-20T21:44:30.647Z,14.27
2019-05-20T21:46:59.332Z,12.40
2019-05-20T21:49:28.125Z,11.63
2019-05-20T21:51:56.755Z,15.57
2019-05-20T21:55:47.396Z,13.27
2019-05-20T21:58:16.064Z,12.33
2019-05-20T22:00:53.422Z,14.43
2019-05-20T22:03:24.923Z,13.23
2019-05-20T22:05:53.164Z,12.93
2019-05-20T22:08:22.228Z,11.90
2019-05-20T22:10:51.003Z,10.37
2019-05-20T22:13:19.652Z,12.80
2019-05-20T22:15:48.328Z,12.60
2019-05-20T22:18:17.014Z,14.70
2019-05-20T22:20:45.691Z,12.83
2019-05-20T22:23:32.117Z,13.43
2019-05-20T22:26:00.822Z,15.60
2019-05-20T22:28:29.692Z,13.43
2019-05-20T22:30:58.386Z,13.63
2019-05-20T22:33:40.474Z,11.47
2019-05-20T22:35:57.492Z,14.40
2019-05-20T22:38:26.587Z,12.57
2019-05-20T22:40:55.971Z,13.63
2019-05-20T22:43:24.674Z,14.07
2019-05-20T22:45:53.519Z,10.57
2019-05-20T22:48:22.709Z,13.00
2019-05-20T22:50:51.459Z,12.37
2019-05-20T22:53:20.210Z,11.40
2019-05-20T22:55:48.892Z,11.37
2019-05-20T22:58:17.556Z,12.30
2019-05-20T23:00:46.253Z,11.97
2019-05-20T23:03:15.344Z,12.60
2019-05-20T23:05:44.136Z,16.00
2019-05-20T23:08:13.293Z,13.03
2019-05-20T23:10:42.256Z,15.63
2019-05-20T23:13:10.987Z,11.20
2019-05-20T23:15:39.677Z,18.17
2019-05-20T23:18:08.443Z,12.00
2019-05-20T23:20:37.561Z,13.37
2019-05-20T23:23:06.227Z,12.80
2019-05-20T23:25:35.250Z,14.00
2019-05-20T23:28:03.993Z,13.97
2019-05-20T23:30:33.261Z,13.67
2019-05-20T23:33:02.411Z,15.67
2019-05-20T23:35:31.492Z,22.70
2019-05-20T23:38:00.237Z,12.77
2019-05-20T23:40:29.369Z,14.73
2019-05-20T23:42:58.530Z,16.03
2019-05-20T23:45:27.196Z,15.40
2019-05-20T23:47:55.855Z,14.27
2019-05-20T23:50:24.793Z,16.67
2019-05-20T23:52:53.466Z,13.27
2019-05-20T23:55:22.312Z,19.67
2019-05-20T23:59:45.024Z,13.83
